Accueil
METAR-TAF:

METAR-TAF

Aéroports :

Monte Malanotte

Prato Nevoso, Italie

latitude: 44-15N, longitude: 007-48E, altitude: 1741 m

Observation

Le bulletin a été fait il y a 53 minutes, à 08:55 UTC
Vent 4 kt de direction variable
Température 14°C
Humidité 72%
Pression 1008 hPa
Visibilité 10 km ou plus
Nuages épars à une hauteur de 2000 ft

METAR: LIMY 140855Z VRB04KT 9999 SCT020 14/09 Q1008 RMK BKN VAL NIL VIS MIN 9999

Heure: 11:48 (09:48 UTC)


TAF: absent

Observations et prévisions météorologiques de plus de 4000 aéroports (messages METAR et TAF).

Les stations disponibles sont représentées par des disques jaunes et rouges sur la carte.

Passer la souris dessus pour voir le nom de la station.

Cliquer dessus pour voir les observations et prévisions météorologiques.

Pour changer de carte: cliquez sur les boutons verts avec une croix noire pour zoomer, sur le bouton vert avec un tiret pour effectuer un zoom arrière, ou sur les flèches vertes pour les cartes adjacentes.


METAR-TAF: